createdAt,value
2023-05-20T00:02:42.780Z,101658.84
2023-05-20T00:05:09.309Z,101647.72
2023-05-20T00:07:35.754Z,101649.69
2023-05-20T00:10:03.030Z,101641.34
2023-05-20T00:12:29.498Z,101641.72
2023-05-20T00:17:42.678Z,101646.13
2023-05-20T00:20:09.144Z,101634.16
2023-05-20T00:22:36.390Z,101635.00
2023-05-20T00:25:03.678Z,101635.00
2023-05-20T00:27:30.105Z,101635.78
2023-05-20T00:29:56.479Z,101635.78
2023-05-20T00:32:22.954Z,101631.38
2023-05-20T00:34:49.413Z,101634.63
2023-05-20T00:37:15.950Z,101634.63
2023-05-20T00:39:43.201Z,101626.63
2023-05-20T00:42:10.476Z,101627.00
2023-05-20T00:44:37.747Z,101624.22
2023-05-20T00:47:04.191Z,101630.97
2023-05-20T00:49:30.678Z,101630.97
2023-05-20T00:51:57.941Z,101632.56
2023-05-20T00:54:24.336Z,101627.00
2023-05-20T00:56:50.734Z,101631.38
2023-05-20T00:59:18.006Z,101633.75
2023-05-20T01:01:45.296Z,101633.75
2023-05-20T01:04:12.552Z,101637.34
2023-05-20T01:06:38.925Z,101635.38
2023-05-20T01:09:05.333Z,101641.31
2023-05-20T01:11:31.720Z,101640.50
2023-05-20T01:13:59.106Z,101633.75
2023-05-20T01:16:25.547Z,101636.53
2023-05-20T01:18:52.047Z,101638.16
2023-05-20T01:21:18.454Z,101637.72
2023-05-20T01:23:44.817Z,101630.97
2023-05-20T01:26:11.206Z,101636.53
2023-05-20T01:28:37.575Z,101639.31
2023-05-20T01:31:04.059Z,101636.53
2023-05-20T01:36:14.282Z,101634.13
2023-05-20T01:38:40.649Z,101634.56
2023-05-20T01:41:07.045Z,101630.16
2023-05-20T01:43:33.419Z,101627.75
2023-05-20T01:45:59.789Z,101630.97
2023-05-20T01:51:10.683Z,101627.75
2023-05-20T01:53:37.059Z,101627.75
2023-05-20T01:56:04.316Z,101619.78
2023-05-20T01:58:30.711Z,101609.44
2023-05-20T02:00:57.149Z,101613.06
2023-05-20T02:06:07.773Z,101609.06
2023-05-20T02:08:34.227Z,101605.88
2023-05-20T02:11:00.689Z,101610.66
2023-05-20T02:13:27.069Z,101613.06
2023-05-20T02:15:53.482Z,101609.06
2023-05-20T02:21:14.742Z,101613.06
2023-05-20T02:23:41.131Z,101620.56
2023-05-20T02:26:07.518Z,101619.41
2023-05-20T02:28:33.898Z,101619.78
2023-05-20T02:31:00.321Z,101622.94
2023-05-20T02:36:10.680Z,101624.19
2023-05-20T02:38:37.053Z,101627.34
2023-05-20T02:41:03.449Z,101627.72
2023-05-20T02:43:29.849Z,101622.56
2023-05-20T02:45:56.300Z,101628.13
2023-05-20T02:51:17.597Z,101631.66
2023-05-20T02:53:43.985Z,101626.50
2023-05-20T02:56:10.344Z,101626.09
2023-05-20T02:58:39.474Z,101625.31
2023-05-20T03:01:05.889Z,101625.31
2023-05-20T03:06:17.006Z,101632.47
2023-05-20T03:08:43.422Z,101620.56
2023-05-20T03:11:09.844Z,101633.28
2023-05-20T03:13:36.268Z,101625.34
2023-05-20T03:16:02.803Z,101616.22
2023-05-20T03:21:13.144Z,101625.31
2023-05-20T03:23:39.696Z,101635.69
2023-05-20T03:26:06.117Z,101632.91
2023-05-20T03:28:32.497Z,101636.91
2023-05-20T03:30:58.927Z,101634.50
2023-05-20T03:33:25.310Z,101629.41
2023-05-20T03:35:51.998Z,101638.19
2023-05-20T03:38:19.247Z,101629.47
2023-05-20T03:40:45.632Z,101643.81
2023-05-20T03:43:12.022Z,101638.69
2023-05-20T03:45:38.389Z,101637.16
2023-05-20T03:48:04.846Z,101632.38
2023-05-20T03:50:31.333Z,101624.41
2023-05-20T03:52:57.726Z,101626.41
2023-05-20T03:55:24.093Z,101628.75
2023-05-20T03:57:50.510Z,101626.81
2023-05-20T04:00:16.911Z,101627.63
2023-05-20T04:02:44.212Z,101632.38
2023-05-20T04:05:10.717Z,101628.00
2023-05-20T04:07:37.137Z,101630.47
2023-05-20T04:10:03.566Z,101627.28
2023-05-20T04:12:29.986Z,101632.47
2023-05-20T04:14:56.365Z,101629.59
2023-05-20T04:17:22.732Z,101633.63
2023-05-20T04:19:49.115Z,101637.59
2023-05-20T04:22:15.519Z,101642.81
2023-05-20T04:24:41.897Z,101634.38
2023-05-20T04:27:08.331Z,101646.69
2023-05-20T04:29:34.714Z,101646.69
2023-05-20T04:32:01.120Z,101652.25
2023-05-20T04:34:27.519Z,101639.53
2023-05-20T04:39:37.952Z,101646.38
2023-05-20T04:42:04.306Z,101629.31
2023-05-20T04:44:30.670Z,101636.09
2023-05-20T04:46:57.047Z,101634.53
2023-05-20T04:49:23.410Z,101634.13
2023-05-20T04:54:33.747Z,101628.97
2023-05-20T04:57:00.148Z,101630.13
2023-05-20T04:59:26.523Z,101630.97
2023-05-20T05:01:53.075Z,101628.97
2023-05-20T05:04:19.619Z,101641.75
2023-05-20T05:09:30.177Z,101638.53
2023-05-20T05:11:56.548Z,101643.34
2023-05-20T05:14:22.916Z,101644.22
2023-05-20T05:16:49.293Z,101636.84
2023-05-20T05:19:16.555Z,101639.03
2023-05-20T05:24:26.667Z,101639.53
2023-05-20T05:26:53.049Z,101635.63
2023-05-20T05:29:20.279Z,101633.09
2023-05-20T05:31:46.741Z,101628.31
2023-05-20T05:34:13.232Z,101635.88
2023-05-20T05:39:27.529Z,101638.09
2023-05-20T05:41:54.826Z,101644.91
2023-05-20T05:44:21.276Z,101640.94
2023-05-20T05:46:47.818Z,101641.34
2023-05-20T05:49:15.237Z,101640.56
2023-05-20T05:54:27.359Z,101645.00
2023-05-20T05:56:53.852Z,101644.31
2023-05-20T05:59:20.348Z,101637.59
2023-05-20T06:01:46.912Z,101643.47
2023-05-20T06:04:14.385Z,101645.97
2023-05-20T06:09:25.717Z,101649.59
2023-05-20T06:11:53.137Z,101644.75
2023-05-20T06:14:19.610Z,101644.66
2023-05-20T06:16:46.114Z,101644.00
2023-05-20T06:19:12.720Z,101648.50
2023-05-20T06:24:33.086Z,101644.97
2023-05-20T06:27:00.534Z,101637.38
2023-05-20T06:29:27.027Z,101636.41
2023-05-20T06:31:53.536Z,101638.53
2023-05-20T06:34:20.946Z,101641.81
2023-05-20T06:39:34.243Z,101638.16
2023-05-20T06:42:03.460Z,101628.22
2023-05-20T06:44:30.191Z,101625.81
2023-05-20T06:46:59.720Z,101627.41
2023-05-20T06:49:28.084Z,101623.44
2023-05-20T06:54:40.674Z,101625.34
2023-05-20T06:57:09.003Z,101626.03
2023-05-20T06:59:35.479Z,101620.69
2023-05-20T07:02:01.898Z,101623.84
2023-05-20T07:04:28.400Z,101625.09
2023-05-20T07:06:55.641Z,101631.00
2023-05-20T07:09:25.116Z,101621.00
2023-05-20T07:11:52.428Z,101628.25
2023-05-20T07:14:18.924Z,101617.78
2023-05-20T07:16:45.419Z,101607.13
2023-05-20T07:19:12.906Z,101610.09
2023-05-20T07:21:40.380Z,101611.72
2023-05-20T07:24:06.898Z,101616.59
2023-05-20T07:26:33.418Z,101613.81
2023-05-20T07:29:00.886Z,101611.03
2023-05-20T07:31:28.366Z,101605.03
2023-05-20T07:33:54.895Z,101613.13
2023-05-20T07:36:21.380Z,101603.94
2023-05-20T07:39:00.594Z,101602.41
2023-05-20T07:41:28.779Z,101598.47
2023-05-20T07:43:56.251Z,101600.47
2023-05-20T07:46:22.814Z,101596.13
2023-05-20T07:48:50.251Z,101593.00
2023-05-20T07:51:16.723Z,101598.59
2023-05-20T07:53:43.261Z,101593.44
2023-05-20T07:56:10.604Z,101582.69
2023-05-20T07:58:37.038Z,101594.72
2023-05-20T08:01:03.541Z,101583.59
2023-05-20T08:03:30.176Z,101582.44
2023-05-20T08:05:57.505Z,101587.66
2023-05-20T08:08:24.797Z,101585.25
2023-05-20T08:10:51.297Z,101584.09
2023-05-20T08:13:18.571Z,101590.94
2023-05-20T08:15:45.023Z,101583.78
2023-05-20T08:18:11.513Z,101588.06
2023-05-20T08:20:38.032Z,101584.84
2023-05-20T08:23:04.537Z,101585.63
2023-05-20T08:28:25.206Z,101584.16
2023-05-20T08:30:51.655Z,101585.03
2023-05-20T08:33:18.082Z,101589.00
2023-05-20T08:35:44.500Z,101579.44
2023-05-20T08:38:10.920Z,101582.56
2023-05-20T08:43:21.246Z,101580.56
2023-05-20T08:45:48.503Z,101576.56
2023-05-20T08:48:17.698Z,101578.53
2023-05-20T08:50:44.119Z,101580.13
2023-05-20T08:53:10.517Z,101567.78
2023-05-20T08:58:31.494Z,101573.75
2023-05-20T09:00:58.813Z,101560.19
2023-05-20T09:03:26.190Z,101562.59
2023-05-20T09:05:53.123Z,101569.38
2023-05-20T09:08:21.535Z,101562.97
2023-05-20T09:13:33.045Z,101564.97
2023-05-20T09:15:59.638Z,101560.19
2023-05-20T09:18:26.112Z,101563.81
2023-05-20T09:20:54.482Z,101552.28
2023-05-20T09:23:21.740Z,101555.09
2023-05-20T09:28:43.081Z,101550.31
2023-05-20T09:31:09.563Z,101543.97
2023-05-20T09:33:37.887Z,101554.75
2023-05-20T09:36:04.415Z,101552.34
2023-05-20T09:38:30.878Z,101553.50
2023-05-20T09:43:42.065Z,101551.09
2023-05-20T09:46:09.414Z,101548.69
2023-05-20T09:48:35.991Z,101551.94
2023-05-20T09:51:02.502Z,101543.97
2023-05-20T09:53:28.972Z,101548.78
2023-05-20T09:58:49.575Z,101545.16
2023-05-20T10:01:16.936Z,101547.16
2023-05-20T10:03:46.251Z,101544.75
2023-05-20T10:06:12.802Z,101540.78
2023-05-20T10:08:40.122Z,101538.00
2023-05-20T10:13:50.777Z,101541.22
2023-05-20T10:16:18.200Z,101537.22
2023-05-20T10:18:45.600Z,101538.41
2023-05-20T10:21:12.945Z,101540.06
2023-05-20T10:23:39.412Z,101541.69
2023-05-20T10:28:51.526Z,101529.41
2023-05-20T10:31:17.997Z,101523.41
2023-05-20T10:33:44.524Z,101517.84
2023-05-20T10:36:11.961Z,101518.63
2023-05-20T10:38:39.291Z,101523.03
2023-05-20T10:43:49.619Z,101514.00
2023-05-20T10:48:44.654Z,101502.81
2023-05-20T10:51:11.981Z,101510.41
2023-05-20T10:53:38.479Z,101505.97
2023-05-20T10:58:49.478Z,101487.31
2023-05-20T11:01:16.014Z,101491.25
2023-05-20T11:03:42.594Z,101485.66
2023-05-20T11:06:10.001Z,101488.84
2023-05-20T11:08:37.433Z,101490.78
2023-05-20T11:13:49.635Z,101478.47
2023-05-20T11:16:16.168Z,101474.06
2023-05-20T11:18:42.702Z,101462.88
2023-05-20T11:21:10.046Z,101466.06
2023-05-20T11:23:38.744Z,101456.88
2023-05-20T11:26:06.993Z,101454.50
2023-05-20T11:28:33.436Z,101467.31
2023-05-20T11:30:59.959Z,101464.50
2023-05-20T11:33:26.450Z,101461.72
2023-05-20T11:35:52.961Z,101447.00
2023-05-20T11:38:19.516Z,101463.72
2023-05-20T11:40:50.678Z,101461.75
2023-05-20T11:43:17.816Z,101461.34
2023-05-20T11:45:44.352Z,101467.31
2023-05-20T11:48:10.725Z,101465.75
2023-05-20T11:50:37.226Z,101460.56
2023-05-20T11:53:04.641Z,101466.53
2023-05-20T11:55:32.020Z,101460.97
2023-05-20T11:57:58.505Z,101461.75
2023-05-20T12:00:25.498Z,101461.75
2023-05-20T12:02:53.809Z,101460.63
2023-05-20T12:05:21.221Z,101467.34
2023-05-20T12:07:47.685Z,101450.59
2023-05-20T12:10:14.190Z,101454.25
2023-05-20T12:12:41.576Z,101449.44
2023-05-20T12:15:08.014Z,101453.84
2023-05-20T12:17:34.480Z,101453.38
2023-05-20T12:20:01.917Z,101452.25
2023-05-20T12:22:29.195Z,101453.00
2023-05-20T12:24:55.654Z,101452.19
2023-05-20T12:27:22.958Z,101452.19
2023-05-20T12:29:49.422Z,101456.56
2023-05-20T12:32:15.945Z,101452.59
2023-05-20T12:34:43.245Z,101459.44
2023-05-20T12:37:10.627Z,101448.66
2023-05-20T12:39:38.035Z,101448.28
2023-05-20T12:42:04.506Z,101453.84
2023-05-20T12:47:15.141Z,101448.66
2023-05-20T12:49:42.574Z,101445.47
2023-05-20T12:52:19.010Z,101439.41
2023-05-20T12:54:48.645Z,101435.44
2023-05-20T12:57:15.143Z,101427.06
2023-05-20T13:02:25.738Z,101415.56
2023-05-20T13:04:52.284Z,101418.75
2023-05-20T13:07:19.665Z,101422.34
2023-05-20T13:09:47.025Z,101410.78
2023-05-20T13:12:14.445Z,101414.38
2023-05-20T13:17:26.723Z,101415.19
2023-05-20T13:19:53.273Z,101411.16
2023-05-20T13:22:20.716Z,101419.16
2023-05-20T13:24:47.231Z,101415.56
2023-05-20T13:27:14.651Z,101408.81
2023-05-20T13:32:26.222Z,101412.00
2023-05-20T13:34:52.781Z,101412.41
2023-05-20T13:37:19.287Z,101405.22
2023-05-20T13:39:46.718Z,101408.03
2023-05-20T13:42:13.223Z,101398.03
2023-05-20T13:47:23.747Z,101396.84
2023-05-20T13:49:50.289Z,101401.63
2023-05-20T13:52:17.734Z,101401.22
2023-05-20T13:54:45.170Z,101400.44
2023-05-20T13:57:12.617Z,101399.22
2023-05-20T14:02:23.179Z,101399.22
2023-05-20T14:04:50.635Z,101384.88
2023-05-20T14:07:17.140Z,101398.03
2023-05-20T14:09:44.582Z,101385.69
2023-05-20T14:12:11.113Z,101388.88
2023-05-20T14:17:23.522Z,101384.47
2023-05-20T14:19:50.957Z,101377.69
2023-05-20T14:22:18.398Z,101378.88
2023-05-20T14:24:45.832Z,101381.69
2023-05-20T14:27:12.339Z,101380.50
2023-05-20T14:32:22.759Z,101380.09
2023-05-20T14:34:49.303Z,101384.88
2023-05-20T14:37:15.810Z,101385.69
2023-05-20T14:39:43.236Z,101382.88
2023-05-20T14:42:09.717Z,101380.09
2023-05-20T14:44:36.226Z,101376.88
2023-05-20T14:47:02.766Z,101375.31
2023-05-20T14:49:29.287Z,101376.50
2023-05-20T14:51:55.793Z,101372.91
2023-05-20T14:54:23.212Z,101374.50
2023-05-20T14:56:50.628Z,101369.72
2023-05-20T14:59:18.019Z,101365.72
2023-05-20T15:01:45.448Z,101368.13
2023-05-20T15:04:12.875Z,101366.13
2023-05-20T15:06:39.374Z,101365.31
2023-05-20T15:09:05.853Z,101364.94
2023-05-20T15:11:33.243Z,101369.72
2023-05-20T15:14:00.701Z,101360.97
2023-05-20T15:16:27.221Z,101358.16
2023-05-20T15:18:54.708Z,101360.56
2023-05-20T15:21:22.158Z,101359.75
2023-05-20T15:23:49.595Z,101355.38
2023-05-20T15:26:17.021Z,101353.75
2023-05-20T15:28:44.430Z,101350.56
2023-05-20T15:31:10.903Z,101353.75
2023-05-20T15:33:38.412Z,101350.19
2023-05-20T15:36:05.916Z,101348.56
2023-05-20T15:38:32.506Z,101356.16
2023-05-20T15:40:59.895Z,101352.16
2023-05-20T15:43:26.405Z,101352.56
2023-05-20T15:45:52.880Z,101357.34
2023-05-20T15:51:04.379Z,101351.38
2023-05-20T15:53:30.865Z,101352.56
2023-05-20T15:55:58.237Z,101346.97
2023-05-20T15:58:24.698Z,101345.38
2023-05-20T16:00:52.067Z,101349.38
2023-05-20T16:06:03.572Z,101344.97
2023-05-20T16:08:31.014Z,101345.78
2023-05-20T16:10:57.550Z,101340.59
2023-05-20T16:13:24.121Z,101343.00
2023-05-20T16:15:51.641Z,101342.19
2023-05-20T16:21:03.207Z,101342.97
2023-05-20T16:23:29.725Z,101347.78
2023-05-20T16:25:57.212Z,101340.19
2023-05-20T16:28:23.702Z,101337.41
2023-05-20T16:30:50.206Z,101339.78
2023-05-20T16:33:16.734Z,101346.16
2023-05-20T16:35:43.221Z,101341.78
2023-05-20T16:38:09.721Z,101347.00
2023-05-20T16:40:36.329Z,101352.16
2023-05-20T16:43:03.809Z,101349.38
2023-05-20T16:45:30.331Z,101342.97
2023-05-20T16:50:41.896Z,101355.75
2023-05-20T16:53:09.304Z,101359.34
2023-05-20T16:55:36.624Z,101354.53
2023-05-20T16:58:03.079Z,101358.16
2023-05-20T17:00:29.558Z,101360.13
2023-05-20T17:05:41.737Z,101360.13
2023-05-20T17:08:08.234Z,101359.75
2023-05-20T17:10:34.804Z,101362.53
2023-05-20T17:13:01.474Z,101354.56
2023-05-20T17:15:27.960Z,101358.56
2023-05-20T17:20:40.383Z,101360.13
2023-05-20T17:23:06.924Z,101365.31
2023-05-20T17:25:33.380Z,101362.53
2023-05-20T17:28:00.720Z,101360.53
2023-05-20T17:30:28.031Z,101367.72
2023-05-20T17:35:40.501Z,101369.72
2023-05-20T17:38:07.769Z,101369.72
2023-05-20T17:40:34.351Z,101378.88
2023-05-20T17:43:00.968Z,101374.88
2023-05-20T17:45:30.952Z,101374.09
2023-05-20T17:50:44.063Z,101373.31
2023-05-20T17:53:12.403Z,101370.91
2023-05-20T17:55:38.956Z,101376.09
2023-05-20T17:58:06.243Z,101373.69
2023-05-20T18:00:32.891Z,101370.06
2023-05-20T18:02:59.504Z,101370.06
2023-05-20T18:05:26.621Z,101366.06
2023-05-20T18:07:53.138Z,101368.84
2023-05-20T18:10:19.626Z,101372.81
2023-05-20T18:12:46.040Z,101377.97
2023-05-20T18:15:13.329Z,101376.81
2023-05-20T18:17:40.537Z,101378.41
2023-05-20T18:20:09.017Z,101383.19
2023-05-20T18:22:35.527Z,101387.16
2023-05-20T18:25:01.999Z,101383.19
2023-05-20T18:27:29.261Z,101388.38
2023-05-20T18:29:55.719Z,101381.56
2023-05-20T18:32:22.190Z,101385.97
2023-05-20T18:34:48.707Z,101394.31
2023-05-20T18:37:15.981Z,101394.31
2023-05-20T18:39:42.403Z,101386.34
2023-05-20T18:42:09.762Z,101391.53
2023-05-20T18:44:38.121Z,101389.53
2023-05-20T18:47:05.452Z,101394.72
2023-05-20T18:49:32.748Z,101397.50
2023-05-20T18:51:59.288Z,101392.72
2023-05-20T18:54:26.576Z,101393.09
2023-05-20T18:56:53.939Z,101400.66
2023-05-20T18:59:20.453Z,101399.44
2023-05-20T19:01:47.760Z,101397.84
2023-05-20T19:04:15.093Z,101383.88
2023-05-20T19:09:25.628Z,101389.41
2023-05-20T19:11:53.070Z,101392.28
2023-05-20T19:14:20.433Z,101381.50
2023-05-20T19:16:46.967Z,101387.84
2023-05-20T19:19:14.440Z,101387.41
2023-05-20T19:24:25.650Z,101388.25
2023-05-20T19:26:52.137Z,101389.41
2023-05-20T19:29:20.007Z,101395.84
2023-05-20T19:31:47.357Z,101388.28
2023-05-20T19:34:14.752Z,101390.72
2023-05-20T19:39:26.148Z,101391.94
2023-05-20T19:41:53.519Z,101389.56
2023-05-20T19:44:19.975Z,101387.16
2023-05-20T19:46:46.473Z,101386.38
2023-05-20T19:49:13.917Z,101386.38
2023-05-20T19:54:24.343Z,101391.53
2023-05-20T19:56:51.756Z,101382.38
2023-05-20T19:59:19.175Z,101394.72
2023-05-20T20:01:45.754Z,101388.75
2023-05-20T20:04:13.358Z,101392.31
2023-05-20T20:09:23.705Z,101391.53
2023-05-20T20:11:51.130Z,101397.50
2023-05-20T20:14:18.562Z,101399.91
2023-05-20T20:16:45.103Z,101398.28
2023-05-20T20:19:11.641Z,101399.06
2023-05-20T20:24:23.305Z,101404.63
2023-05-20T20:26:50.668Z,101406.59
2023-05-20T20:29:17.194Z,101397.03
2023-05-20T20:31:44.671Z,101405.34
2023-05-20T20:34:12.152Z,101404.97
2023-05-20T20:39:22.858Z,101410.56
2023-05-20T20:41:49.354Z,101399.84
2023-05-20T20:44:15.843Z,101411.34
2023-05-20T20:46:42.395Z,101400.63
2023-05-20T20:49:08.961Z,101397.03
2023-05-20T20:54:19.601Z,101399.88
2023-05-20T20:56:46.123Z,101397.88
2023-05-20T20:59:13.710Z,101394.31
2023-05-20T21:01:40.322Z,101399.44
2023-05-20T21:04:06.909Z,101394.69
2023-05-20T21:09:18.272Z,101385.44
2023-05-20T21:11:44.751Z,101397.75
2023-05-20T21:14:11.243Z,101387.38
2023-05-20T21:16:38.684Z,101386.56
2023-05-20T21:19:06.143Z,101381.41
2023-05-20T21:24:18.457Z,101385.69
2023-05-20T21:26:44.936Z,101383.66
2023-05-20T21:29:11.405Z,101388.47
2023-05-20T21:31:38.763Z,101389.25
2023-05-20T21:34:06.061Z,101390.88
2023-05-20T21:36:33.388Z,101385.28
2023-05-20T21:39:01.760Z,101389.63
2023-05-20T21:41:28.226Z,101386.03
2023-05-20T21:43:54.724Z,101394.03
2023-05-20T21:46:22.070Z,101392.06
2023-05-20T21:48:49.357Z,101392.41
2023-05-20T21:51:15.830Z,101391.59
2023-05-20T21:53:43.284Z,101392.84
2023-05-20T21:56:10.580Z,101397.56
2023-05-20T21:58:38.911Z,101395.53
2023-05-20T22:01:07.356Z,101401.91
2023-05-20T22:03:33.972Z,101397.16
2023-05-20T22:06:00.530Z,101391.59
2023-05-20T22:08:28.941Z,101393.94
2023-05-20T22:10:55.484Z,101392.78
2023-05-20T22:13:22.013Z,101388.72
2023-05-20T22:15:49.262Z,101391.91
2023-05-20T22:18:16.590Z,101389.94
2023-05-20T22:20:43.026Z,101391.44
2023-05-20T22:23:09.562Z,101388.28
2023-05-20T22:25:37.031Z,101387.38
2023-05-20T22:28:04.557Z,101390.50
2023-05-20T22:30:31.057Z,101388.91
2023-05-20T22:32:57.535Z,101391.00
2023-05-20T22:35:24.849Z,101391.38
2023-05-20T22:37:51.374Z,101389.44
2023-05-20T22:43:02.115Z,101380.22
2023-05-20T22:45:29.393Z,101389.06
2023-05-20T22:50:26.122Z,101383.41
2023-05-20T22:52:54.494Z,101382.22
2023-05-20T23:00:35.098Z,101388.13
2023-05-20T23:03:01.647Z,101388.44
2023-05-20T23:05:30.905Z,101389.69
2023-05-20T23:07:57.440Z,101387.19
2023-05-20T23:13:10.566Z,101395.19
2023-05-20T23:15:38.841Z,101390.81
2023-05-20T23:18:07.273Z,101391.59
2023-05-20T23:20:33.832Z,101387.09
2023-05-20T23:23:08.173Z,101387.09
2023-05-20T23:28:22.661Z,101387.91
2023-05-20T23:30:49.126Z,101388.66
2023-05-20T23:33:16.480Z,101381.16
2023-05-20T23:35:43.820Z,101381.22
2023-05-20T23:38:10.372Z,101384.81
2023-05-20T23:43:25.656Z,101388.72
2023-05-20T23:45:52.192Z,101387.94
2023-05-20T23:48:18.650Z,101392.28
2023-05-20T23:50:46.974Z,101389.88
2023-05-20T23:53:14.224Z,101385.34
2023-05-20T23:58:35.372Z,101380.91
